Time;durP1;ratioP1;P1;durP2;ratioP2;P2;SDS_P1;SDS_P2;PMS_P1;PMS_P2;Temp;Humidity;BMP_temperature;BMP_pressure;BME280_temperature;BME280_humidity;BME280_pressure;Samples;Min_cycle;Max_cycle;Signal;HPM_P1;HPM_P2
2022/09/15 00:00:53;;;;;;;;;2.00;2.00;;;;;23.16;58.88;100238.34;5099625;27;45431;-69
2022/09/15 00:03:20;;;;;;;;;1.00;1.00;;;;;23.22;58.71;100241.81;5100974;27;45429;-69
2022/09/15 00:05:46;;;;;;;;;1.00;1.00;;;;;23.23;58.59;100247.22;5097870;27;45590;-69
2022/09/15 00:08:12;;;;;;;;;1.00;1.00;;;;;23.09;58.48;100214.06;5098283;27;45989;-69
2022/09/15 00:10:38;;;;;;;;;1.00;1.00;;;;;23.13;58.81;100238.44;5095628;27;47932;-69
2022/09/15 00:13:04;;;;;;;;;0.67;0.67;;;;;22.89;58.73;100204.69;5095514;27;45624;-69
2022/09/15 00:15:29;;;;;;;;;2.33;1.67;;;;;23.07;58.79;100229.59;5104412;27;45306;-69
2022/09/15 00:17:54;;;;;;;;;3.00;3.00;;;;;23.10;58.44;100241.28;5100176;27;57623;-69
2022/09/15 00:20:20;;;;;;;;;1.00;1.00;;;;;23.11;58.17;100240.31;5104768;27;45582;-69
2022/09/15 00:22:47;;;;;;;;;0.00;0.00;;;;;23.09;58.25;100244.94;5106729;27;45577;-69
2022/09/15 00:25:13;;;;;;;;;1.00;1.00;;;;;23.02;58.09;100243.34;5106817;27;45637;-69
2022/09/15 00:27:39;;;;;;;;;1.00;1.00;;;;;23.02;58.19;100239.72;5101296;27;46445;-69
2022/09/15 00:30:05;;;;;;;;;1.00;0.00;;;;;23.03;58.11;100239.66;5103491;27;45315;-69
2022/09/15 00:32:31;;;;;;;;;1.00;1.00;;;;;23.05;58.26;100242.31;5100449;27;45362;-69
2022/09/15 00:34:56;;;;;;;;;1.00;1.00;;;;;22.89;57.90;100212.00;5113878;27;46007;-69
2022/09/15 00:37:22;;;;;;;;;0.33;0.33;;;;;23.01;58.09;100244.25;5098414;27;46068;-69
2022/09/15 00:39:48;;;;;;;;;1.33;1.33;;;;;22.94;58.58;100243.56;5103877;27;50325;-68
2022/09/15 00:42:16;;;;;;;;;1.00;1.00;;;;;22.93;58.53;100240.91;5104312;27;45549;-69
2022/09/15 00:45:00;;;;;;;;;2.67;2.67;;;;;22.70;58.66;100212.56;5108301;27;45509;-69
2022/09/15 00:47:35;;;;;;;;;2.67;1.33;;;;;22.50;58.75;100191.44;5096084;27;47428;-69
2022/09/15 00:50:12;;;;;;;;;1.33;1.00;;;;;22.82;58.87;100254.88;5101330;27;45380;-68
2022/09/15 00:52:44;;;;;;;;;3.67;2.33;;;;;22.82;58.96;100261.22;5110271;27;45441;-69
2022/09/15 00:55:13;;;;;;;;;8.00;3.00;;;;;22.85;58.89;100265.69;5109150;27;45613;-69
2022/09/15 00:57:45;;;;;;;;;3.33;3.33;;;;;22.80;59.05;100257.66;5099512;27;47853;-68
2022/09/15 01:00:14;;;;;;;;;3.67;3.00;;;;;22.68;59.01;100238.09;5099507;27;45401;-69
2022/09/15 01:02:42;;;;;;;;;4.67;4.67;;;;;22.69;58.84;100248.94;5098029;27;45384;-69
2022/09/15 01:05:19;;;;;;;;;3.00;3.00;;;;;22.70;59.08;100264.31;5097090;27;45228;-68
2022/09/15 01:07:56;;;;;;;;;4.00;4.00;;;;;22.73;59.12;100282.41;5103131;27;45980;-69
2022/09/15 01:10:27;;;;;;;;;5.00;5.00;;;;;22.50;59.44;100258.59;5108237;27;45529;-68
2022/09/15 01:12:56;;;;;;;;;8.33;6.33;;;;;22.65;59.45;100293.53;5101880;27;45540;-69
2022/09/15 01:15:28;;;;;;;;;7.67;5.33;;;;;22.66;59.64;100289.88;5105481;27;45463;-69
2022/09/15 01:18:17;;;;;;;;;5.33;4.67;;;;;22.65;59.53;100288.06;5100386;27;45482;-69
2022/09/15 01:21:07;;;;;;;;;6.00;5.00;;;;;22.60;59.64;100290.97;5099325;27;45511;-69
2022/09/15 01:24:09;;;;;;;;;9.33;6.00;;;;;22.59;59.73;100283.72;5100608;27;45614;-68
2022/09/15 01:26:37;;;;;;;;;4.00;3.67;;;;;22.54;60.03;100288.41;5098452;27;45993;-69
2022/09/15 01:29:46;;;;;;;;;4.67;3.67;;;;;22.53;59.86;100286.63;5097290;27;46330;-68
2022/09/15 01:35:30;;;;;;;;;3.67;3.67;;;;;22.32;59.85;100274.53;5114013;27;45404;-69
2022/09/15 01:38:14;;;;;;;;;3.33;2.33;;;;;22.12;59.97;100237.00;5118969;27;45331;-69
2022/09/15 01:40:48;;;;;;;;;0.00;0.00;;;;;22.37;59.93;100293.47;5103524;27;45400;-70
2022/09/15 01:43:15;;;;;;;;;3.33;2.33;;;;;22.23;59.90;100270.25;5103230;27;45710;-69
2022/09/15 01:45:44;;;;;;;;;4.33;3.00;;;;;22.25;60.09;100278.38;5102504;27;45648;-69
2022/09/15 01:48:10;;;;;;;;;4.33;4.33;;;;;22.38;59.93;100296.16;5106885;27;45711;-68
2022/09/15 01:50:45;;;;;;;;;2.33;2.33;;;;;22.35;59.89;100298.94;5100633;27;47036;-69
2022/09/15 01:53:16;;;;;;;;;4.67;3.00;;;;;22.32;59.94;100301.75;5099634;27;45423;-68
2022/09/15 01:56:06;;;;;;;;;2.33;2.33;;;;;22.17;59.99;100277.69;5099615;27;45447;-69
2022/09/15 01:58:32;;;;;;;;;1.67;1.67;;;;;22.27;59.78;100300.97;5098407;27;45438;-69
2022/09/15 02:01:04;;;;;;;;;4.00;3.00;;;;;22.22;59.88;100297.50;5097708;27;45427;-69
2022/09/15 02:04:08;;;;;;;;;3.00;3.00;;;;;21.70;59.82;100204.69;5103763;27;45497;-68
2022/09/15 02:06:43;;;;;;;;;2.00;2.00;;;;;22.29;60.00;100310.03;5110539;27;45375;-69
2022/09/15 02:09:19;;;;;;;;;2.00;2.00;;;;;22.07;59.73;100264.34;5102692;27;45511;-69
2022/09/15 02:12:19;;;;;;;;;2.00;2.00;;;;;22.25;59.69;100306.47;5104597;27;45716;-68
2022/09/15 02:15:04;;;;;;;;;6.33;5.00;;;;;22.22;59.14;100306.56;5099218;27;45446;-69
2022/09/15 02:17:34;;;;;;;;;3.33;3.00;;;;;22.18;59.27;100313.03;5100118;27;45367;-69
2022/09/15 02:20:24;;;;;;;;;4.00;2.00;;;;;22.12;59.33;100307.75;5100303;27;46063;-69
2022/09/15 02:22:56;;;;;;;;;7.00;4.33;;;;;22.07;59.26;100301.56;5101559;27;46182;-69
2022/09/15 02:25:29;;;;;;;;;5.00;4.00;;;;;22.03;59.22;100291.72;5098898;27;45497;-69
2022/09/15 02:28:00;;;;;;;;;6.00;5.00;;;;;22.11;59.13;100299.63;5096847;27;45484;-68
2022/09/15 02:30:28;;;;;;;;;9.00;6.00;;;;;22.09;58.77;100305.13;5098271;27;45436;-69
2022/09/15 02:32:59;;;;;;;;;9.00;6.67;;;;;21.99;59.16;100304.50;5103206;27;45502;-70
2022/09/15 02:35:27;;;;;;;;;7.00;5.67;;;;;21.98;59.06;100310.00;5097721;27;45243;-69
2022/09/15 02:37:55;;;;;;;;;7.67;4.00;;;;;21.84;58.89;100280.44;5097888;27;45667;-69
2022/09/15 02:40:21;;;;;;;;;10.33;10.33;;;;;21.84;58.83;100281.31;5096325;27;45517;-69
2022/09/15 02:43:00;;;;;;;;;9.00;7.00;;;;;21.45;58.89;100218.94;5104758;27;45456;-69
2022/09/15 02:45:27;;;;;;;;;6.33;6.00;;;;;21.93;58.70;100301.03;5102002;27;45430;-69
2022/09/15 02:47:52;;;;;;;;;8.33;7.00;;;;;21.93;58.49;100298.31;5103728;27;45428;-69
2022/09/15 02:50:19;;;;;;;;;9.67;7.67;;;;;21.91;58.30;100306.56;5102625;27;45757;-69
2022/09/15 02:52:45;;;;;;;;;6.33;5.33;;;;;21.85;58.42;100299.44;5100030;27;47180;-69
2022/09/15 02:55:10;;;;;;;;;9.67;7.33;;;;;21.87;58.19;100299.41;5101223;27;45538;-69
2022/09/15 02:57:36;;;;;;;;;10.33;7.67;;;;;21.88;58.22;100304.78;5098042;27;45444;-68
2022/09/15 03:00:11;;;;;;;;;9.00;6.00;;;;;21.89;58.30;100301.16;5099325;27;45508;-69
2022/09/15 03:02:37;;;;;;;;;9.67;9.33;;;;;21.64;58.10;100256.50;5096391;27;46205;-69
2022/09/15 03:05:03;;;;;;;;;12.33;10.33;;;;;21.90;58.05;100296.59;5096076;27;45505;-69
2022/09/15 03:07:30;;;;;;;;;7.33;7.33;;;;;21.88;58.14;100307.50;5105261;27;45419;-69
2022/09/15 03:09:55;;;;;;;;;13.67;9.00;;;;;21.85;58.29;100309.44;5104038;27;45269;-69
2022/09/15 03:12:21;;;;;;;;;9.67;8.67;;;;;21.80;58.12;100315.00;5099997;27;46022;-69
2022/09/15 03:14:46;;;;;;;;;8.33;8.33;;;;;21.68;57.95;100304.44;5099490;27;62431;-69
2022/09/15 03:17:12;;;;;;;;;9.00;7.67;;;;;21.58;58.37;100300.16;5102901;27;45525;-69
2022/09/15 03:19:37;;;;;;;;;10.67;10.33;;;;;21.53;58.08;100279.44;5098748;27;45532;-69
2022/09/15 03:22:02;;;;;;;;;9.33;9.33;;;;;21.68;57.85;100308.06;5100721;27;45952;-69
2022/09/15 03:24:28;;;;;;;;;7.33;7.33;;;;;21.57;57.88;100299.28;5097168;27;45494;-70
2022/09/15 03:26:53;;;;;;;;;7.00;7.00;;;;;21.38;58.03;100271.66;5097295;27;45328;-69
2022/09/15 03:29:18;;;;;;;;;8.00;7.00;;;;;21.56;57.47;100311.06;5096226;27;45696;-69
2022/09/15 03:31:44;;;;;;;;;9.00;5.67;;;;;21.50;57.25;100314.88;5107182;27;50489;-70
2022/09/15 03:34:09;;;;;;;;;3.33;3.33;;;;;21.50;57.32;100309.44;5106717;27;46315;-69
2022/09/15 03:36:34;;;;;;;;;5.00;5.00;;;;;21.49;56.79;100313.06;5096946;27;45961;-69
2022/09/15 03:39:00;;;;;;;;;7.00;7.00;;;;;21.44;56.76;100314.09;5096153;27;45509;-69
2022/09/15 03:41:26;;;;;;;;;8.67;7.00;;;;;21.38;56.66;100315.13;5100862;27;45566;-69
2022/09/15 03:43:52;;;;;;;;;7.67;7.67;;;;;21.32;56.83;100318.03;5102884;27;45487;-69
2022/09/15 03:46:18;;;;;;;;;7.67;7.67;;;;;21.28;56.94;100317.22;5104720;27;45524;-69
2022/09/15 03:48:44;;;;;;;;;7.00;7.00;;;;;21.28;56.83;100314.50;5101634;27;45262;-68
2022/09/15 03:51:10;;;;;;;;;8.67;7.67;;;;;21.20;56.79;100312.88;5101071;27;46098;-69
2022/09/15 03:53:37;;;;;;;;;10.67;8.00;;;;;21.25;56.46;100319.09;5100783;27;45480;-69
2022/09/15 03:56:21;;;;;;;;;10.00;7.33;;;;;21.26;56.57;100316.34;5098714;27;45295;-70
2022/09/15 03:58:46;;;;;;;;;8.33;7.00;;;;;21.10;56.55;100291.38;5100653;27;45601;-69
2022/09/15 04:01:12;;;;;;;;;12.00;12.00;;;;;21.25;56.45;100330.88;5099922;27;46042;-68
2022/09/15 04:03:38;;;;;;;;;9.67;9.00;;;;;21.24;56.68;100331.78;5099854;27;45342;-68
2022/09/15 04:06:03;;;;;;;;;11.00;9.00;;;;;20.94;56.19;100282.69;5098897;27;45438;-69
2022/09/15 04:08:28;;;;;;;;;8.00;7.33;;;;;21.17;56.26;100327.44;5109685;27;45381;-69
2022/09/15 04:10:54;;;;;;;;;9.33;9.00;;;;;21.09;56.14;100319.47;5104227;27;46274;-68
2022/09/15 04:13:20;;;;;;;;;9.00;9.00;;;;;21.16;56.03;100331.97;5105946;27;45602;-69
2022/09/15 04:15:46;;;;;;;;;9.67;8.00;;;;;21.14;56.17;100328.41;5105151;27;45399;-68
2022/09/15 04:18:11;;;;;;;;;13.33;10.33;;;;;21.05;55.68;100323.19;5102418;27;45431;-68
2022/09/15 04:20:38;;;;;;;;;10.33;10.33;;;;;20.92;55.99;100306.28;5103307;27;60508;-69
2022/09/15 04:23:03;;;;;;;;;11.33;10.33;;;;;21.05;55.82;100339.50;5100668;27;45493;-69
2022/09/15 04:25:29;;;;;;;;;12.33;10.67;;;;;21.08;55.88;100339.41;5101501;27;45475;-68
2022/09/15 04:27:56;;;;;;;;;11.00;8.00;;;;;21.09;55.83;100335.75;5098860;27;50930;-69
2022/09/15 04:30:21;;;;;;;;;15.00;11.00;;;;;20.79;55.56;100288.50;5098533;27;46190;-69
2022/09/15 04:32:48;;;;;;;;;11.67;9.00;;;;;20.98;55.69;100326.97;5102248;27;45463;-68
2022/09/15 04:35:14;;;;;;;;;14.00;11.33;;;;;21.06;55.42;100348.53;5100026;27;46259;-69
2022/09/15 04:37:39;;;;;;;;;10.33;10.33;;;;;21.04;55.48;100353.13;5113132;27;46413;-69
2022/09/15 04:40:05;;;;;;;;;11.00;9.33;;;;;20.91;55.83;100342.50;5098047;27;51536;-69
2022/09/15 04:42:31;;;;;;;;;11.00;10.00;;;;;20.85;54.97;100331.78;5097592;27;45456;-69
2022/09/15 04:44:56;;;;;;;;;13.33;11.67;;;;;20.91;55.23;100356.09;5110084;27;45343;-69
2022/09/15 04:47:21;;;;;;;;;9.00;8.33;;;;;20.87;55.44;100358.91;5104048;27;45468;-68
2022/09/15 04:49:47;;;;;;;;;15.33;11.00;;;;;20.56;55.31;100318.84;5106700;27;45997;-68
2022/09/15 04:52:12;;;;;;;;;13.33;11.00;;;;;20.76;55.23;100356.44;5101998;27;45590;-68
2022/09/15 04:54:37;;;;;;;;;16.00;12.67;;;;;20.72;55.01;100338.41;5103538;27;45459;-68
2022/09/15 04:57:03;;;;;;;;;16.00;12.33;;;;;20.78;55.38;100362.72;5100984;27;45476;-68
2022/09/15 04:59:28;;;;;;;;;17.67;11.33;;;;;20.78;55.28;100366.31;5099416;27;46188;-69
2022/09/15 05:01:54;;;;;;;;;16.33;10.33;;;;;20.70;55.70;100364.72;5100393;27;45572;-68
2022/09/15 05:04:20;;;;;;;;;19.00;10.33;;;;;20.70;55.78;100381.00;5098483;27;45306;-69
2022/09/15 05:06:45;;;;;;;;;10.33;10.00;;;;;20.62;56.17;100383.84;5102027;27;45432;-68
2022/09/15 05:09:12;;;;;;;;;41.00;32.00;;;;;20.62;56.15;100389.25;5105724;27;54267;-68
2022/09/15 05:11:38;;;;;;;;;18.33;12.00;;;;;20.53;56.05;100378.63;5105350;27;45262;-68
2022/09/15 05:14:03;;;;;;;;;11.00;10.67;;;;;20.34;56.24;100350.94;5105330;27;45263;-68
2022/09/15 05:16:30;;;;;;;;;10.00;8.00;;;;;20.58;56.10;100392.97;5109605;27;45473;-69
2022/09/15 05:18:58;;;;;;;;;11.33;11.33;;;;;20.55;56.39;100398.47;5099993;27;46279;-68
2022/09/15 05:21:24;;;;;;;;;8.33;7.00;;;;;20.37;56.53;100370.75;5097300;27;45337;-69
2022/09/15 05:23:53;;;;;;;;;12.33;11.67;;;;;20.54;56.26;100403.00;5105516;27;45458;-68
2022/09/15 05:26:21;;;;;;;;;7.33;7.00;;;;;20.47;56.85;100401.31;5107804;27;45472;-69
2022/09/15 05:28:47;;;;;;;;;9.67;8.67;;;;;20.44;56.56;100401.38;5102232;27;45485;-69
2022/09/15 05:31:20;;;;;;;;;17.67;11.33;;;;;20.23;56.88;100371.06;5105424;27;45448;-69
2022/09/15 05:33:47;;;;;;;;;22.00;20.33;;;;;20.26;57.52;100397.25;5097867;27;45611;-69
2022/09/15 05:36:13;;;;;;;;;13.67;11.67;;;;;20.28;57.32;100400.81;5100304;27;45329;-68
2022/09/15 05:38:39;;;;;;;;;23.00;13.67;;;;;20.15;57.51;100374.84;5097515;27;46971;-68
2022/09/15 05:41:07;;;;;;;;;16.67;13.00;;;;;20.30;57.39;100417.94;5112097;27;45533;-69
2022/09/15 05:43:34;;;;;;;;;20.67;17.67;;;;;20.24;57.79;100415.34;5107865;27;45463;-69
2022/09/15 05:46:00;;;;;;;;;11.67;11.67;;;;;20.02;58.43;100382.31;5103841;27;45533;-69
2022/09/15 05:48:26;;;;;;;;;16.00;13.00;;;;;20.21;58.36;100420.81;5105420;27;46173;-68
2022/09/15 05:50:53;;;;;;;;;16.33;13.00;;;;;20.16;58.35;100426.34;5101020;27;45535;-69
2022/09/15 05:53:19;;;;;;;;;17.33;15.67;;;;;19.89;58.82;100398.78;5110057;27;45583;-69
2022/09/15 05:55:45;;;;;;;;;16.33;12.33;;;;;20.06;59.18;100420.19;5100030;27;45553;-68
2022/09/15 05:58:11;;;;;;;;;16.33;12.67;;;;;20.07;58.79;100423.78;5104424;27;46225;-69
2022/09/15 06:00:36;;;;;;;;;15.00;14.33;;;;;20.00;58.67;100404.03;5103443;27;45708;-68
2022/09/15 06:03:02;;;;;;;;;17.00;15.33;;;;;20.16;59.01;100439.00;5098493;27;45489;-68
2022/09/15 06:05:28;;;;;;;;;20.33;19.00;;;;;20.06;58.43;100425.63;5097040;27;45703;-68
2022/09/15 06:07:54;;;;;;;;;14.67;12.67;;;;;19.72;58.71;100370.19;5103062;27;45539;-69
2022/09/15 06:10:23;;;;;;;;;20.00;13.67;;;;;20.12;58.51;100442.72;5108252;27;45496;-68
2022/09/15 06:12:49;;;;;;;;;14.33;12.67;;;;;19.93;58.33;100431.28;5101488;27;45539;-69
2022/09/15 06:15:14;;;;;;;;;12.00;11.33;;;;;19.87;58.06;100433.16;5103504;27;45573;-69
2022/09/15 06:17:40;;;;;;;;;15.00;12.67;;;;;19.92;58.42;100446.66;5100242;27;45281;-69
2022/09/15 06:20:06;;;;;;;;;34.75;25.25;;;;;20.01;58.71;100446.50;5100431;27;58194;-68
2022/09/15 06:22:32;;;;;;;;;27.00;22.33;;;;;19.82;58.70;100424.22;5100043;27;45460;-69
2022/09/15 06:24:58;;;;;;;;;19.67;17.00;;;;;19.98;58.81;100457.41;5098415;27;45463;-69
2022/09/15 06:27:23;;;;;;;;;17.00;15.33;;;;;19.95;58.76;100451.16;5096869;27;46159;-69
2022/09/15 06:29:49;;;;;;;;;12.33;11.33;;;;;20.05;58.16;100479.88;5096676;27;45610;-69
2022/09/15 06:32:14;;;;;;;;;27.67;24.67;;;;;19.99;58.31;100467.31;5095267;27;54317;-72
2022/09/15 06:34:39;;;;;;;;;25.67;22.00;;;;;20.01;58.40;100476.34;5106751;27;45421;-68
2022/09/15 06:37:04;;;;;;;;;20.67;19.00;;;;;20.02;58.09;100483.53;5097194;27;48005;-70
2022/09/15 06:39:30;;;;;;;;;48.50;35.75;;;;;19.98;58.42;100475.47;5096668;27;59348;-69
2022/09/15 06:41:55;;;;;;;;;22.67;20.00;;;;;19.66;58.25;100412.69;5095033;27;53937;-69
2022/09/15 06:44:20;;;;;;;;;24.00;15.67;;;;;20.08;58.20;100477.13;5096699;27;45510;-68
2022/09/15 06:46:47;;;;;;;;;23.33;18.33;;;;;20.11;57.77;100487.91;5106025;27;45440;-68
2022/09/15 06:49:12;;;;;;;;;20.33;15.33;;;;;20.00;57.74;100465.53;5093490;27;45512;-68
2022/09/15 06:51:38;;;;;;;;;19.00;15.00;;;;;20.16;57.03;100490.53;5101892;27;45436;-70
2022/09/15 06:54:04;;;;;;;;;21.33;13.33;;;;;20.14;57.09;100489.69;5117243;27;45653;-68
2022/09/15 06:56:30;;;;;;;;;16.00;14.67;;;;;20.13;57.04;100502.34;5116430;27;45101;-69
2022/09/15 06:58:57;;;;;;;;;22.00;15.00;;;;;19.97;57.62;100480.00;5122318;27;45103;-69
2022/09/15 07:01:30;;;;;;;;;22.00;16.67;;;;;20.16;57.25;100505.00;5100156;27;45487;-69
2022/09/15 07:03:57;;;;;;;;;17.67;16.00;;;;;20.16;57.00;100509.53;5099814;27;45397;-69
2022/09/15 07:06:26;;;;;;;;;20.00;17.33;;;;;20.09;57.06;100508.72;5102273;27;45394;-68
2022/09/15 07:08:52;;;;;;;;;21.67;18.67;;;;;20.05;57.16;100499.75;5098176;27;45270;-68
2022/09/15 07:11:18;;;;;;;;;20.67;19.33;;;;;20.10;57.34;100507.81;5098053;27;46276;-68
2022/09/15 07:13:44;;;;;;;;;49.75;38.00;;;;;20.11;57.43;100512.31;5105555;27;45277;-70
2022/09/15 07:16:11;;;;;;;;;23.00;19.67;;;;;20.14;56.75;100509.53;5105977;27;46364;-70
2022/09/15 07:18:37;;;;;;;;;23.67;19.33;;;;;20.13;56.91;100510.50;5109413;27;45493;-70
2022/09/15 07:21:06;;;;;;;;;21.00;18.33;;;;;20.14;57.05;100514.09;5109191;27;45380;-70
2022/09/15 07:23:33;;;;;;;;;24.00;19.33;;;;;20.05;56.77;100491.63;5115026;27;45230;-69
2022/09/15 07:26:16;;;;;;;;;34.67;25.00;;;;;20.30;56.46;100515.63;5126262;27;45777;-69
2022/09/15 07:28:43;;;;;;;;;25.67;19.33;;;;;20.26;56.01;100522.03;5121039;27;45463;-69
2022/09/15 07:31:11;;;;;;;;;21.00;19.67;;;;;20.29;56.33;100523.78;5109790;27;45137;-69
2022/09/15 07:33:37;;;;;;;;;26.00;18.67;;;;;20.29;56.09;100523.78;5124070;27;45206;-69
2022/09/15 07:36:04;;;;;;;;;23.33;20.00;;;;;20.19;55.81;100504.94;5114908;27;45423;-70
2022/09/15 07:38:30;;;;;;;;;23.00;19.33;;;;;20.19;55.39;100499.50;5098532;27;45424;-69
2022/09/15 07:41:05;;;;;;;;;25.67;21.00;;;;;20.36;55.53;100523.66;5098503;27;45334;-70
2022/09/15 07:43:31;;;;;;;;;18.33;18.33;;;;;20.36;55.17;100526.38;5100035;27;45417;-70
2022/09/15 07:45:58;;;;;;;;;24.00;17.67;;;;;20.55;55.01;100539.59;5108029;27;46084;-69
2022/09/15 07:48:23;;;;;;;;;41.50;27.25;;;;;20.59;54.97;100534.09;5112022;27;45145;-69
2022/09/15 07:50:48;;;;;;;;;32.00;25.00;;;;;20.63;54.93;100543.09;5110603;27;45630;-69
2022/09/15 07:53:13;;;;;;;;;22.67;17.33;;;;;20.68;54.34;100533.06;5103396;27;45423;-70
2022/09/15 07:55:39;;;;;;;;;25.33;22.00;;;;;20.79;54.01;100536.47;5094651;27;53235;-69
2022/09/15 07:58:04;;;;;;;;;20.67;19.33;;;;;20.85;53.68;100542.69;5095954;27;45474;-69
2022/09/15 08:00:30;;;;;;;;;22.67;19.67;;;;;20.73;53.10;100513.97;5093785;27;45440;-69
2022/09/15 08:02:55;;;;;;;;;18.67;18.67;;;;;20.97;52.98;100542.47;5093114;27;45380;-68
2022/09/15 08:05:26;;;;;;;;;25.67;19.67;;;;;21.03;52.78;100546.88;5097635;27;46313;-69
2022/09/15 08:07:52;;;;;;;;;24.00;17.33;;;;;21.04;52.37;100555.00;5098730;27;45567;-70
2022/09/15 08:10:17;;;;;;;;;20.33;18.67;;;;;20.94;52.48;100528.94;5101976;27;45452;-69
2022/09/15 08:12:43;;;;;;;;;21.33;18.33;;;;;21.07;52.54;100544.06;5095128;27;45510;-69
2022/09/15 08:15:08;;;;;;;;;25.00;17.33;;;;;20.99;52.21;100529.75;5098558;27;46016;-70
2022/09/15 08:17:34;;;;;;;;;23.33;18.33;;;;;21.10;52.03;100522.28;5098876;27;45370;-70
2022/09/15 08:19:59;;;;;;;;;17.33;16.33;;;;;21.19;51.79;100520.31;5095823;27;52323;-68
2022/09/15 08:22:25;;;;;;;;;24.67;17.33;;;;;21.36;51.42;100550.72;5098463;27;45468;-68
2022/09/15 08:24:50;;;;;;;;;17.67;16.67;;;;;21.42;51.23;100555.13;5095092;27;45459;-68
2022/09/15 08:27:16;;;;;;;;;29.00;22.33;;;;;21.45;51.27;100549.59;5096081;27;45262;-69
2022/09/15 08:29:42;;;;;;;;;21.33;16.33;;;;;21.58;50.51;100570.22;5094770;27;45506;-69
2022/09/15 08:32:07;;;;;;;;;18.33;15.67;;;;;21.39;50.35;100530.72;5102945;27;45414;-69
2022/09/15 08:34:33;;;;;;;;;19.33;16.00;;;;;21.70;50.17;100583.53;5097781;27;45486;-69
2022/09/15 08:36:58;;;;;;;;;22.33;16.00;;;;;21.83;49.61;100594.16;5095911;27;45336;-67
2022/09/15 08:39:23;;;;;;;;;15.00;12.33;;;;;21.93;49.09;100594.78;5096473;27;45593;-68
2022/09/15 08:41:52;;;;;;;;;15.67;12.67;;;;;22.01;48.87;100587.34;5094541;27;45356;-69
2022/09/15 08:44:55;;;;;;;;;10.67;10.33;;;;;22.13;48.15;100592.53;5096783;27;46356;-68
2022/09/15 08:47:40;;;;;;;;;11.00;8.00;;;;;22.20;47.42;100593.28;5103984;27;45353;-69
2022/09/15 08:50:22;;;;;;;;;7.00;6.67;;;;;21.89;47.82;100524.19;5101882;27;45424;-68
2022/09/15 08:52:56;;;;;;;;;11.00;11.00;;;;;22.36;47.14;100596.56;5103057;27;45607;-69
2022/09/15 08:55:34;;;;;;;;;6.33;5.33;;;;;22.36;46.90;100602.00;5102873;27;45639;-68
2022/09/15 08:57:59;;;;;;;;;10.33;8.00;;;;;22.32;47.21;100592.09;5101647;27;45766;-68
2022/09/15 09:00:25;;;;;;;;;18.33;15.33;;;;;22.41;47.12;100602.78;5100314;27;45734;-67
2022/09/15 09:03:04;;;;;;;;;12.33;8.33;;;;;22.53;46.71;100604.28;5099218;27;45580;-68
2022/09/15 09:05:59;;;;;;;;;6.33;6.00;;;;;22.59;46.08;100599.56;5112399;27;47536;-69
2022/09/15 09:08:49;;;;;;;;;12.67;6.67;;;;;22.71;46.02;100594.75;5100350;27;45589;-70
2022/09/15 09:11:29;;;;;;;;;11.00;8.00;;;;;22.82;45.95;100590.81;5109672;27;45420;-71
2022/09/15 09:14:02;;;;;;;;;10.33;8.67;;;;;22.96;45.13;100584.09;5102223;27;45490;-70
2022/09/15 09:16:49;;;;;;;;;6.00;4.33;;;;;23.08;44.73;100591.03;5107288;27;47154;-69
2022/09/15 09:19:31;;;;;;;;;13.00;10.33;;;;;23.10;44.60;100590.09;5100653;27;45552;-70
2022/09/15 09:22:08;;;;;;;;;9.00;6.33;;;;;23.20;44.51;100593.44;5100303;27;45563;-69
2022/09/15 09:24:46;;;;;;;;;9.33;7.67;;;;;23.21;44.19;100589.75;5100289;27;45405;-69
2022/09/15 09:27:14;;;;;;;;;9.67;5.67;;;;;23.27;43.57;100589.59;5099970;27;46210;-70
2022/09/15 09:29:59;;;;;;;;;7.00;5.33;;;;;23.12;44.03;100590.94;5113042;27;45525;-69
2022/09/15 09:32:31;;;;;;;;;11.67;10.33;;;;;23.17;44.19;100598.97;5097640;27;45549;-69
2022/09/15 09:34:59;;;;;;;;;10.67;8.33;;;;;23.22;44.24;100602.47;5107101;27;45321;-69
2022/09/15 09:37:24;;;;;;;;;14.33;11.00;;;;;23.09;44.07;100576.50;5098520;27;46172;-69
2022/09/15 09:39:50;;;;;;;;;9.00;9.00;;;;;23.10;44.46;100595.53;5098809;27;46099;-69
2022/09/15 09:42:17;;;;;;;;;11.00;10.00;;;;;22.90;44.39;100573.34;5097122;27;45360;-68
2022/09/15 09:44:43;;;;;;;;;8.67;6.33;;;;;23.14;44.91;100593.59;5097341;27;45471;-68
2022/09/15 09:47:09;;;;;;;;;8.00;7.00;;;;;23.23;44.64;100592.44;5102864;27;46429;-68
2022/09/15 09:49:41;;;;;;;;;5.67;3.33;;;;;23.28;44.18;100596.84;5104245;27;45619;-68
2022/09/15 09:52:06;;;;;;;;;4.00;4.00;;;;;23.34;43.93;100593.03;5103349;27;45608;-68
2022/09/15 09:54:34;;;;;;;;;6.00;6.00;;;;;23.34;44.30;100602.09;5101683;27;45297;-69
2022/09/15 09:57:11;;;;;;;;;10.33;8.33;;;;;23.37;43.54;100601.13;5101292;27;47114;-69
2022/09/15 09:59:44;;;;;;;;;6.67;5.33;;;;;23.40;43.59;100600.16;5099520;27;45334;-70
2022/09/15 10:02:09;;;;;;;;;4.00;4.00;;;;;23.32;43.44;100601.25;5098302;27;45424;-68
2022/09/15 10:04:35;;;;;;;;;5.67;3.00;;;;;23.26;43.29;100603.25;5097505;27;45543;-70
2022/09/15 10:07:00;;;;;;;;;5.00;3.00;;;;;23.27;43.62;100605.94;5097081;27;45405;-68
2022/09/15 10:09:26;;;;;;;;;5.00;3.67;;;;;23.29;43.50;100604.06;5095913;27;45335;-68
2022/09/15 10:11:55;;;;;;;;;4.00;4.00;;;;;23.22;43.40;100585.22;5109198;27;45330;-68
2022/09/15 10:14:26;;;;;;;;;6.00;6.00;;;;;23.34;43.27;100613.00;5101793;27;45547;-69
2022/09/15 10:17:01;;;;;;;;;7.00;5.00;;;;;23.42;43.67;100607.34;5104157;27;46970;-68
2022/09/15 10:19:29;;;;;;;;;12.67;9.67;;;;;23.53;43.29;100587.94;5100154;27;45400;-68
2022/09/15 10:21:57;;;;;;;;;5.00;5.00;;;;;23.73;43.09;100590.06;5102132;27;45458;-69
2022/09/15 10:24:34;;;;;;;;;5.33;5.33;;;;;23.86;43.06;100593.34;5098645;27;45501;-69
2022/09/15 10:27:24;;;;;;;;;11.33;8.67;;;;;23.98;42.62;100592.06;5098977;27;46000;-69
2022/09/15 10:29:49;;;;;;;;;7.67;5.33;;;;;24.11;42.68;100590.72;5096194;27;45409;-69
2022/09/15 10:32:20;;;;;;;;;5.67;4.67;;;;;24.13;42.12;100586.09;5096356;27;50061;-69
2022/09/15 10:34:47;;;;;;;;;5.00;4.50;;;;;24.27;41.99;100589.28;5105990;27;45406;-69
2022/09/15 10:37:18;;;;;;;;;8.00;5.67;;;;;24.39;41.43;100587.09;5097859;27;46365;-70
2022/09/15 10:39:59;;;;;;;;;6.00;6.00;;;;;24.39;40.95;100596.16;5098891;27;45418;-68
2022/09/15 10:42:28;;;;;;;;;2.00;2.00;;;;;24.29;40.51;100594.69;5096323;27;45484;-70
2022/09/15 10:45:06;;;;;;;;;3.67;3.67;;;;;24.18;41.02;100596.88;5095618;27;45535;-69
2022/09/15 10:47:58;;;;;;;;;4.33;3.33;;;;;24.14;40.83;100586.97;5101514;27;47171;-69
2022/09/15 10:50:53;;;;;;;;;3.67;3.00;;;;;24.13;41.00;100596.13;5100727;27;45497;-69
2022/09/15 10:53:35;;;;;;;;;3.00;2.00;;;;;24.15;41.17;100606.03;5105107;27;45944;-69
2022/09/15 10:56:31;;;;;;;;;3.00;3.00;;;;;24.17;41.30;100598.72;5099585;27;45305;-68
2022/09/15 10:59:50;;;;;;;;;5.00;5.00;;;;;24.23;41.00;100597.63;5097397;27;45562;-70
2022/09/15 11:02:18;;;;;;;;;5.00;4.00;;;;;24.13;41.59;100597.03;5090459;27;45372;-71
2022/09/15 11:04:58;;;;;;;;;5.00;5.00;;;;;24.01;41.59;100600.16;5090625;27;45401;-69
2022/09/15 11:07:41;;;;;;;;;4.00;4.00;;;;;23.90;41.90;100597.75;5087421;27;45363;-69
2022/09/15 11:10:15;;;;;;;;;6.67;5.33;;;;;23.82;42.00;100594.34;5094701;27;46120;-68
2022/09/15 11:12:55;;;;;;;;;6.33;5.33;;;;;23.84;42.03;100596.13;5100774;27;45313;-70
2022/09/15 11:15:27;;;;;;;;;5.00;3.33;;;;;23.95;41.61;100582.13;5101632;27;45438;-69
2022/09/15 11:18:13;;;;;;;;;4.33;3.00;;;;;24.18;41.35;100588.69;5103205;27;45422;-71
2022/09/15 11:20:51;;;;;;;;;3.67;3.67;;;;;24.36;40.65;100574.41;5103858;27;45629;-68
2022/09/15 11:23:37;;;;;;;;;5.00;4.00;;;;;24.40;39.94;100580.66;5098691;27;45265;-69
2022/09/15 11:26:14;;;;;;;;;4.33;3.33;;;;;24.25;40.61;100563.88;5097677;27;45479;-71
2022/09/15 11:29:11;;;;;;;;;3.00;2.33;;;;;24.36;39.19;100574.41;5095756;27;45293;-70
2022/09/15 11:31:43;;;;;;;;;5.33;3.67;;;;;24.18;39.91;100539.56;5089356;27;46320;-70
2022/09/15 11:34:22;;;;;;;;;10.00;8.00;;;;;24.29;39.67;100548.28;5104088;27;45334;-70
2022/09/15 11:37:06;;;;;;;;;12.33;9.00;;;;;24.50;40.38;100581.25;5103943;27;45518;-68